Terminal Aerodrome Forecast
Issued by NWS

Home | Current Version | Previous Version | Text Only | Print | Product List | Glossary On
Versions: 1 2 3 4 5 6 7 8 9 10 11 12 13
816
FTUS44 KLIX 240520
TAFMSY
TAF
KMSY 240520Z 2406/2506 09005KT P6SM FEW050
     FM241500 06009KT P6SM SCT030 SCT100
     FM241700 07010KT P6SM VCSH SCT040
      TEMPO 2420/2424 VRB10KT TS BKN040CB
     FM250100 07004KT P6SM FEW040=

USA.gov is the U.S. government's official web portal to all federal, state and local government web resources and services.